createdAt,value
2022-07-29T00:00:36.264Z,2.00
2022-07-29T00:03:04.544Z,2.10
2022-07-29T00:05:32.245Z,2.20
2022-07-29T00:07:59.891Z,1.98
2022-07-29T00:10:27.656Z,2.83
2022-07-29T00:12:55.414Z,1.67
2022-07-29T00:15:23.147Z,1.80
2022-07-29T00:17:50.758Z,2.05
2022-07-29T00:20:18.581Z,2.08
2022-07-29T00:22:46.160Z,2.50
2022-07-29T00:25:14.385Z,2.35
2022-07-29T00:27:42.145Z,2.38
2022-07-29T00:30:10.158Z,3.00
2022-07-29T00:32:37.751Z,2.72
2022-07-29T00:35:24.596Z,2.88
2022-07-29T00:37:52.456Z,3.00
2022-07-29T00:40:23.546Z,2.72
2022-07-29T00:42:52.397Z,3.10
2022-07-29T00:45:20.133Z,3.20
2022-07-29T00:47:48.692Z,3.13
2022-07-29T00:50:16.327Z,3.40
2022-07-29T00:52:44.342Z,3.53
2022-07-29T00:55:12.885Z,3.13
2022-07-29T00:57:41.802Z,3.17
2022-07-29T01:00:10.874Z,2.92
2022-07-29T01:02:38.689Z,2.78
2022-07-29T01:05:07.351Z,3.63
2022-07-29T01:07:36.782Z,3.03
2022-07-29T01:10:06.302Z,3.75
2022-07-29T01:12:34.487Z,3.47
2022-07-29T01:15:02.917Z,3.15
2022-07-29T01:17:34.028Z,3.15
2022-07-29T01:20:21.160Z,3.08
2022-07-29T01:22:48.954Z,3.28
2022-07-29T01:25:25.898Z,3.10
2022-07-29T01:28:02.162Z,3.45
2022-07-29T01:30:32.223Z,3.55
2022-07-29T01:33:04.851Z,4.00
2022-07-29T01:35:41.610Z,3.47
2022-07-29T01:38:09.247Z,3.72
2022-07-29T01:40:39.883Z,3.30
2022-07-29T01:45:46.838Z,4.10
2022-07-29T01:48:26.008Z,3.60
2022-07-29T01:50:57.568Z,3.20
2022-07-29T01:53:37.794Z,4.03
2022-07-29T01:56:06.459Z,3.58
2022-07-29T01:58:36.718Z,3.80
2022-07-29T02:01:05.005Z,3.83
2022-07-29T02:03:34.233Z,3.22
2022-07-29T02:06:02.587Z,3.78
2022-07-29T02:08:30.986Z,4.78
2022-07-29T02:10:59.984Z,4.00
2022-07-29T02:13:27.830Z,3.95
2022-07-29T02:15:56.083Z,3.72
2022-07-29T02:18:25.213Z,3.20
2022-07-29T02:20:55.696Z,3.53
2022-07-29T02:23:24.513Z,3.80
2022-07-29T02:25:56.740Z,3.33
2022-07-29T02:28:25.679Z,4.10
2022-07-29T02:30:55.491Z,3.55
2022-07-29T02:33:23.465Z,3.87
2022-07-29T02:35:51.814Z,4.68
2022-07-29T02:38:39.089Z,3.47
2022-07-29T02:41:12.488Z,4.00
2022-07-29T02:43:40.999Z,3.80
2022-07-29T02:46:12.785Z,4.57
2022-07-29T02:49:16.810Z,3.55
2022-07-29T02:51:51.106Z,4.32
2022-07-29T02:54:25.484Z,4.68
2022-07-29T02:56:56.471Z,3.95
2022-07-29T02:59:27.045Z,4.50
2022-07-29T03:01:55.963Z,3.95
2022-07-29T03:04:26.681Z,3.90
2022-07-29T03:09:22.835Z,5.32
2022-07-29T03:11:51.126Z,4.47
2022-07-29T03:14:20.825Z,4.18
2022-07-29T03:16:49.494Z,4.93
2022-07-29T03:19:17.785Z,4.43
2022-07-29T03:21:45.401Z,4.72
2022-07-29T03:24:25.616Z,4.68
2022-07-29T03:26:53.465Z,5.18
2022-07-29T03:29:21.295Z,4.93
2022-07-29T03:31:49.127Z,4.88
2022-07-29T03:34:17.758Z,4.15
2022-07-29T03:36:45.577Z,4.28
2022-07-29T03:39:14.677Z,4.38
2022-07-29T03:41:43.296Z,4.38
2022-07-29T03:44:11.473Z,4.07
2022-07-29T03:46:40.920Z,4.70
2022-07-29T03:49:09.986Z,4.03
2022-07-29T03:51:37.960Z,4.85
2022-07-29T03:54:09.930Z,4.93
2022-07-29T03:56:40.122Z,4.93
2022-07-29T03:59:08.562Z,4.50
2022-07-29T04:01:36.489Z,4.35
2022-07-29T04:04:05.546Z,4.72
2022-07-29T04:06:40.262Z,4.47
2022-07-29T04:09:09.877Z,4.78
2022-07-29T04:12:01.510Z,4.50
2022-07-29T04:14:25.936Z,4.55
2022-07-29T04:16:53.945Z,5.40
2022-07-29T04:19:21.490Z,5.05
2022-07-29T04:21:48.987Z,4.63
2022-07-29T04:24:17.239Z,3.60
2022-07-29T04:26:45.185Z,4.13
2022-07-29T04:29:13.006Z,4.93
2022-07-29T04:31:40.583Z,4.55
2022-07-29T04:34:08.781Z,3.95
2022-07-29T04:36:36.382Z,4.40
2022-07-29T04:39:04.469Z,3.72
2022-07-29T04:41:33.432Z,4.18
2022-07-29T04:44:06.994Z,5.05
2022-07-29T04:46:35.288Z,5.28
2022-07-29T04:49:03.356Z,5.05
2022-07-29T04:51:31.009Z,5.65
2022-07-29T04:53:58.472Z,5.22
2022-07-29T04:56:26.092Z,5.03
2022-07-29T04:58:53.606Z,4.90
2022-07-29T05:01:21.151Z,5.03
2022-07-29T05:03:48.783Z,4.72
2022-07-29T05:06:16.512Z,4.60
2022-07-29T05:08:43.982Z,5.78
2022-07-29T05:11:13.049Z,4.28
2022-07-29T05:13:45.978Z,4.40
2022-07-29T05:16:15.267Z,4.55
2022-07-29T05:18:43.234Z,4.80
2022-07-29T05:21:10.865Z,4.53
2022-07-29T05:23:38.357Z,3.47
2022-07-29T05:26:05.995Z,3.47
2022-07-29T05:28:36.989Z,3.80
2022-07-29T05:31:04.630Z,3.50
2022-07-29T05:33:35.003Z,3.75
2022-07-29T05:36:07.646Z,3.85
2022-07-29T05:38:36.304Z,3.47
2022-07-29T05:41:04.123Z,3.60
2022-07-29T05:43:31.840Z,3.38
2022-07-29T05:45:59.467Z,3.10
2022-07-29T05:48:27.216Z,3.33
2022-07-29T05:50:55.318Z,3.58
2022-07-29T05:53:22.994Z,3.60
2022-07-29T05:55:50.888Z,3.45
2022-07-29T05:58:18.534Z,3.50
2022-07-29T06:00:46.285Z,3.08
2022-07-29T06:03:13.912Z,4.07
2022-07-29T06:05:41.775Z,4.03
2022-07-29T06:08:09.394Z,4.10
2022-07-29T06:10:37.599Z,3.50
2022-07-29T06:13:05.137Z,4.20
2022-07-29T06:15:32.802Z,3.55
2022-07-29T06:18:01.630Z,3.35
2022-07-29T06:20:31.302Z,3.75
2022-07-29T06:22:59.688Z,3.67
2022-07-29T06:25:30.031Z,3.85
2022-07-29T06:27:58.021Z,3.90
2022-07-29T06:30:25.677Z,3.50
2022-07-29T06:32:53.206Z,2.90
2022-07-29T06:35:38.891Z,4.25
2022-07-29T06:38:30.474Z,3.00
2022-07-29T06:41:06.641Z,4.43
2022-07-29T06:43:36.096Z,5.10
2022-07-29T06:46:19.129Z,3.92
2022-07-29T06:48:46.932Z,3.85
2022-07-29T06:51:14.956Z,3.42
2022-07-29T06:53:59.397Z,3.05
2022-07-29T06:56:31.652Z,2.78
2022-07-29T06:58:59.260Z,3.00
2022-07-29T07:01:29.189Z,3.50
2022-07-29T07:03:57.327Z,2.83
2022-07-29T07:06:24.815Z,3.45
2022-07-29T07:08:52.423Z,3.92
2022-07-29T07:11:20.087Z,3.58
2022-07-29T07:13:47.684Z,3.22
2022-07-29T07:16:15.277Z,3.53
2022-07-29T07:18:43.029Z,2.80
2022-07-29T07:21:10.633Z,3.72
2022-07-29T07:23:38.225Z,3.80
2022-07-29T07:26:07.390Z,3.20
2022-07-29T07:28:36.074Z,3.13
2022-07-29T07:31:03.627Z,3.30
2022-07-29T07:33:32.696Z,3.40
2022-07-29T07:36:00.335Z,2.92
2022-07-29T07:38:37.433Z,4.30
2022-07-29T07:41:05.256Z,6.00
2022-07-29T07:43:32.896Z,3.45
2022-07-29T07:46:00.583Z,3.72
2022-07-29T07:48:28.243Z,4.15
2022-07-29T07:50:55.948Z,4.30
2022-07-29T07:53:24.225Z,3.95
2022-07-29T07:58:41.881Z,3.50
2022-07-29T08:01:10.145Z,3.28
2022-07-29T08:03:38.189Z,3.30
2022-07-29T08:06:06.080Z,3.95
2022-07-29T08:08:33.716Z,3.45
2022-07-29T08:11:08.352Z,3.30
2022-07-29T08:13:37.621Z,3.80
2022-07-29T08:16:16.187Z,3.25
2022-07-29T08:18:44.806Z,3.67
2022-07-29T08:21:15.205Z,3.35
2022-07-29T08:26:19.152Z,2.50
2022-07-29T08:28:50.389Z,2.80
2022-07-29T08:31:18.705Z,2.83
2022-07-29T08:33:46.531Z,3.58
2022-07-29T08:36:14.618Z,3.20
2022-07-29T08:38:42.252Z,3.08
2022-07-29T08:41:10.204Z,3.00
2022-07-29T08:43:39.215Z,3.95
2022-07-29T08:46:09.279Z,2.72
2022-07-29T08:48:37.941Z,2.40
2022-07-29T08:51:07.082Z,2.20
2022-07-29T08:53:35.087Z,2.67
2022-07-29T08:56:03.488Z,2.38
2022-07-29T08:58:36.618Z,2.45
2022-07-29T09:01:05.527Z,2.58
2022-07-29T09:03:36.135Z,2.90
2022-07-29T09:06:04.348Z,2.67
2022-07-29T09:08:35.083Z,2.20
2022-07-29T09:11:04.185Z,2.05
2022-07-29T09:16:03.491Z,2.40
2022-07-29T09:18:42.462Z,2.40
2022-07-29T09:21:31.267Z,1.92
2022-07-29T09:24:12.190Z,1.58
2022-07-29T09:26:44.004Z,1.98
2022-07-29T09:29:19.865Z,3.38
2022-07-29T09:31:49.690Z,2.55
2022-07-29T09:34:18.489Z,2.33
2022-07-29T09:36:47.130Z,1.90
2022-07-29T09:39:15.644Z,1.90
2022-07-29T09:41:50.609Z,1.80
2022-07-29T09:44:18.435Z,1.73
2022-07-29T09:46:56.787Z,2.10
2022-07-29T09:49:24.819Z,5.45
2022-07-29T09:52:22.499Z,1.80
2022-07-29T09:54:51.191Z,2.67
2022-07-29T09:57:30.559Z,1.95
2022-07-29T09:59:58.952Z,1.88
2022-07-29T10:02:30.931Z,2.00
2022-07-29T10:04:58.882Z,1.95
2022-07-29T10:07:26.650Z,1.58
2022-07-29T10:09:55.778Z,1.30
2022-07-29T10:12:23.796Z,1.90
2022-07-29T10:14:51.981Z,1.98
2022-07-29T10:17:20.156Z,1.85
2022-07-29T10:19:48.622Z,2.55
2022-07-29T10:22:31.200Z,1.85
2022-07-29T10:25:04.036Z,1.50
2022-07-29T10:27:32.874Z,1.55
2022-07-29T10:30:00.696Z,2.08
2022-07-29T10:32:40.332Z,1.85
2022-07-29T10:35:20.333Z,1.53
2022-07-29T10:38:06.779Z,1.77
2022-07-29T10:40:59.329Z,1.92
2022-07-29T10:43:31.882Z,1.48
2022-07-29T10:46:01.440Z,1.58
2022-07-29T10:48:29.191Z,2.25
2022-07-29T10:51:07.130Z,1.67
2022-07-29T10:54:05.922Z,1.73
2022-07-29T10:56:35.396Z,1.52
2022-07-29T10:59:36.304Z,1.42
2022-07-29T11:02:35.347Z,1.60
2022-07-29T11:04:57.962Z,2.17
2022-07-29T11:07:26.377Z,4.38
2022-07-29T11:10:14.095Z,1.45
2022-07-29T11:12:45.301Z,1.70
2022-07-29T11:15:21.683Z,1.63
2022-07-29T11:17:59.200Z,1.52
2022-07-29T11:23:39.582Z,2.90
2022-07-29T11:26:13.625Z,1.70
2022-07-29T11:28:52.245Z,1.38
2022-07-29T11:31:36.296Z,2.42
2022-07-29T11:34:22.966Z,1.75
2022-07-29T11:37:09.163Z,1.50
2022-07-29T11:39:41.741Z,1.20
2022-07-29T11:42:18.735Z,1.88
2022-07-29T11:45:41.922Z,1.30
2022-07-29T11:48:29.753Z,1.50
2022-07-29T11:51:00.780Z,1.73
2022-07-29T11:56:18.390Z,1.38
2022-07-29T11:58:46.411Z,1.55
2022-07-29T12:01:19.339Z,1.27
2022-07-29T12:03:47.757Z,1.48
2022-07-29T12:06:18.087Z,1.58
2022-07-29T12:11:17.715Z,2.23
2022-07-29T12:13:51.531Z,1.65
2022-07-29T12:16:25.414Z,1.95
2022-07-29T12:18:58.014Z,1.40
2022-07-29T12:21:26.591Z,1.70
2022-07-29T12:24:01.772Z,1.55
2022-07-29T12:26:35.628Z,2.05
2022-07-29T12:29:04.480Z,1.75
2022-07-29T12:31:42.003Z,1.00
2022-07-29T12:34:12.636Z,1.48
2022-07-29T12:36:40.445Z,2.35
2022-07-29T12:39:08.305Z,1.40
2022-07-29T12:41:36.172Z,1.85
2022-07-29T12:44:04.234Z,1.50
2022-07-29T12:46:32.562Z,2.55
2022-07-29T12:49:00.366Z,1.90
2022-07-29T12:51:32.161Z,3.55
2022-07-29T12:54:05.956Z,2.30
2022-07-29T12:56:42.589Z,2.20
2022-07-29T12:59:17.083Z,1.40
2022-07-29T13:01:44.882Z,1.52
2022-07-29T13:04:12.442Z,2.88
2022-07-29T13:06:46.038Z,5.07
2022-07-29T13:09:44.980Z,3.03
2022-07-29T13:12:13.605Z,1.30
2022-07-29T13:14:42.678Z,1.58
2022-07-29T13:17:16.626Z,2.00
2022-07-29T13:19:45.478Z,2.38
2022-07-29T13:22:21.163Z,2.00
2022-07-29T13:24:55.471Z,4.68
2022-07-29T13:27:27.493Z,4.57
2022-07-29T13:29:57.547Z,2.00
2022-07-29T13:32:28.410Z,2.70
2022-07-29T13:35:01.203Z,2.33
2022-07-29T13:37:35.222Z,3.28
2022-07-29T13:40:04.215Z,2.92
2022-07-29T13:42:33.476Z,2.42
2022-07-29T13:45:05.574Z,1.95
2022-07-29T13:47:33.510Z,1.95
2022-07-29T13:50:02.127Z,1.83
2022-07-29T13:52:31.869Z,1.92
2022-07-29T13:54:59.634Z,2.05
2022-07-29T13:57:29.552Z,15.70
2022-07-29T13:59:57.717Z,4.43
2022-07-29T14:02:26.205Z,1.88
2022-07-29T14:04:55.237Z,1.63
2022-07-29T14:07:25.152Z,2.03
2022-07-29T14:09:52.887Z,2.00
2022-07-29T14:12:20.488Z,1.40
2022-07-29T14:14:48.408Z,2.15
2022-07-29T14:17:16.521Z,8.75
2022-07-29T14:19:44.381Z,2.45
2022-07-29T14:22:12.112Z,2.90
2022-07-29T14:24:40.263Z,1.52
2022-07-29T14:27:08.700Z,1.50
2022-07-29T14:29:38.050Z,1.60
2022-07-29T14:32:08.207Z,1.98
2022-07-29T14:34:36.938Z,0.80
2022-07-29T14:37:07.558Z,1.50
2022-07-29T14:39:42.849Z,1.52
2022-07-29T14:42:11.680Z,1.48
2022-07-29T14:44:42.275Z,1.13
2022-07-29T14:47:10.478Z,1.70
2022-07-29T14:49:38.295Z,1.40
2022-07-29T14:52:06.161Z,1.58
2022-07-29T14:54:34.013Z,0.95
2022-07-29T14:57:03.359Z,1.25
2022-07-29T14:59:31.059Z,1.10
2022-07-29T15:01:59.029Z,1.70
2022-07-29T15:04:27.036Z,1.48
2022-07-29T15:06:57.450Z,1.35
2022-07-29T15:11:52.689Z,2.08
2022-07-29T15:14:20.401Z,1.63
2022-07-29T15:16:48.383Z,1.40
2022-07-29T15:19:19.111Z,1.13
2022-07-29T15:21:48.596Z,1.60
2022-07-29T15:24:17.398Z,1.40
2022-07-29T15:26:45.563Z,1.20
2022-07-29T15:29:13.128Z,1.92
2022-07-29T15:31:40.795Z,1.23
2022-07-29T15:34:09.214Z,1.40
2022-07-29T15:36:53.314Z,1.35
2022-07-29T15:39:22.638Z,1.20
2022-07-29T15:41:50.812Z,1.33
2022-07-29T15:44:18.799Z,1.60
2022-07-29T15:47:06.340Z,1.30
2022-07-29T15:49:48.149Z,1.40
2022-07-29T15:52:19.073Z,1.08
2022-07-29T15:54:52.613Z,1.15
2022-07-29T15:57:20.221Z,1.35
2022-07-29T15:59:47.922Z,1.70
2022-07-29T16:02:15.663Z,1.90
2022-07-29T16:04:43.320Z,1.80
2022-07-29T16:07:10.960Z,1.65
2022-07-29T16:09:38.634Z,1.55
2022-07-29T16:12:14.657Z,2.22
2022-07-29T16:14:49.212Z,1.23
2022-07-29T16:17:16.902Z,1.35
2022-07-29T16:19:45.414Z,1.10
2022-07-29T16:22:13.198Z,1.17
2022-07-29T16:24:40.891Z,1.45
2022-07-29T16:27:08.446Z,1.33
2022-07-29T16:29:37.047Z,1.48
2022-07-29T16:32:05.695Z,1.60
2022-07-29T16:34:33.444Z,1.40
2022-07-29T16:37:01.283Z,1.02
2022-07-29T16:39:29.046Z,1.60
2022-07-29T16:42:00.841Z,1.50
2022-07-29T16:44:30.070Z,1.75
2022-07-29T16:46:58.763Z,1.58
2022-07-29T16:49:27.702Z,1.73
2022-07-29T16:51:55.438Z,2.20
2022-07-29T16:54:23.057Z,1.30
2022-07-29T16:56:50.791Z,1.00
2022-07-29T16:59:18.500Z,1.13
2022-07-29T17:01:46.210Z,1.90
2022-07-29T17:04:15.089Z,1.67
2022-07-29T17:06:43.368Z,1.60
2022-07-29T17:09:11.840Z,1.23
2022-07-29T17:11:51.871Z,1.15
2022-07-29T17:14:24.702Z,1.55
2022-07-29T17:17:01.054Z,1.40
2022-07-29T17:19:29.901Z,1.25
2022-07-29T17:22:06.453Z,1.25
2022-07-29T17:27:06.428Z,1.40
2022-07-29T17:29:34.967Z,1.38
2022-07-29T17:32:03.595Z,1.17
2022-07-29T17:34:31.520Z,1.23
2022-07-29T17:36:59.608Z,1.20
2022-07-29T17:39:27.497Z,1.05
2022-07-29T17:41:55.087Z,1.05
2022-07-29T17:44:22.727Z,0.85
2022-07-29T17:46:50.386Z,1.42
2022-07-29T17:49:19.576Z,1.10
2022-07-29T17:51:47.248Z,1.48
2022-07-29T17:54:15.011Z,1.20
2022-07-29T17:56:42.666Z,1.95
2022-07-29T17:59:10.574Z,1.30
2022-07-29T18:01:40.097Z,1.20
2022-07-29T18:04:11.222Z,1.20
2022-07-29T18:06:40.069Z,1.80
2022-07-29T18:09:07.706Z,1.33
2022-07-29T18:11:35.567Z,1.45
2022-07-29T18:14:03.319Z,1.38
2022-07-29T18:16:31.147Z,1.00
2022-07-29T18:19:00.923Z,1.48
2022-07-29T18:21:43.430Z,1.10
2022-07-29T18:24:17.981Z,1.30
2022-07-29T18:26:45.584Z,1.23
2022-07-29T18:29:13.197Z,1.05
2022-07-29T18:31:41.148Z,1.30
2022-07-29T18:34:08.967Z,1.33
2022-07-29T18:36:36.483Z,1.38
2022-07-29T18:39:04.191Z,1.55
2022-07-29T18:41:31.940Z,1.20
2022-07-29T18:43:59.632Z,1.30
2022-07-29T18:46:27.199Z,1.30
2022-07-29T18:48:57.110Z,1.27
2022-07-29T18:51:24.743Z,1.35
2022-07-29T18:53:52.651Z,1.30
2022-07-29T18:56:20.803Z,1.20
2022-07-29T18:58:48.381Z,1.20
2022-07-29T19:01:16.819Z,1.75
2022-07-29T19:03:44.489Z,1.50
2022-07-29T19:06:12.109Z,1.23
2022-07-29T19:08:39.622Z,1.30
2022-07-29T19:11:07.175Z,1.23
2022-07-29T19:13:34.815Z,1.30
2022-07-29T19:16:02.448Z,1.55
2022-07-29T19:18:32.055Z,1.65
2022-07-29T19:20:59.645Z,1.75
2022-07-29T19:23:27.534Z,1.50
2022-07-29T19:25:55.199Z,1.60
2022-07-29T19:28:25.786Z,1.65
2022-07-29T19:33:20.969Z,1.27
2022-07-29T19:35:54.323Z,1.27
2022-07-29T19:38:22.761Z,1.13
2022-07-29T19:40:50.423Z,1.60
2022-07-29T19:43:51.959Z,1.45
2022-07-29T19:46:05.876Z,1.38
2022-07-29T19:48:33.447Z,1.33
2022-07-29T19:51:01.009Z,1.48
2022-07-29T19:53:28.626Z,1.48
2022-07-29T19:55:56.458Z,1.50
2022-07-29T19:58:26.987Z,1.27
2022-07-29T20:00:54.953Z,1.30
2022-07-29T20:03:22.636Z,1.33
2022-07-29T20:05:51.431Z,1.30
2022-07-29T20:08:19.194Z,1.20
2022-07-29T20:10:46.960Z,1.48
2022-07-29T20:13:14.684Z,1.30
2022-07-29T20:15:42.422Z,1.50
2022-07-29T20:18:10.290Z,1.00
2022-07-29T20:20:38.114Z,1.13
2022-07-29T20:23:05.848Z,1.20
2022-07-29T20:25:33.649Z,0.88
2022-07-29T20:28:01.274Z,1.42
2022-07-29T20:30:31.739Z,1.25
2022-07-29T20:33:00.680Z,1.60
2022-07-29T20:35:28.471Z,1.05
2022-07-29T20:37:59.771Z,1.40
2022-07-29T20:40:29.040Z,2.03
2022-07-29T20:42:57.022Z,1.42
2022-07-29T20:45:24.786Z,1.40
2022-07-29T20:47:52.957Z,1.80
2022-07-29T20:50:23.748Z,2.05
2022-07-29T20:52:52.394Z,2.65
2022-07-29T20:55:20.920Z,1.80
2022-07-29T20:57:51.635Z,2.15
2022-07-29T21:02:47.161Z,2.22
2022-07-29T21:05:15.012Z,2.15
2022-07-29T21:07:43.916Z,1.98
2022-07-29T21:10:11.635Z,2.20
2022-07-29T21:12:39.351Z,2.40
2022-07-29T21:15:07.260Z,1.60
2022-07-29T21:17:36.074Z,2.80
2022-07-29T21:20:08.622Z,1.95
2022-07-29T21:22:36.364Z,2.25
2022-07-29T21:25:04.235Z,3.03
2022-07-29T21:27:50.550Z,2.45
2022-07-29T21:30:18.483Z,2.67
2022-07-29T21:32:46.208Z,2.50
2022-07-29T21:35:30.300Z,2.88
2022-07-29T21:38:01.415Z,3.17
2022-07-29T21:40:30.339Z,2.42
2022-07-29T21:42:58.032Z,3.05
2022-07-29T21:45:25.707Z,3.33
2022-07-29T21:47:53.388Z,2.72
2022-07-29T21:50:21.098Z,3.28
2022-07-29T21:52:48.808Z,3.40
2022-07-29T21:55:16.477Z,3.13
2022-07-29T21:57:46.901Z,3.33
2022-07-29T22:00:15.820Z,3.85
2022-07-29T22:02:44.187Z,3.97
2022-07-29T22:05:12.574Z,3.63
2022-07-29T22:07:54.453Z,3.38
2022-07-29T22:10:25.087Z,3.72
2022-07-29T22:12:53.460Z,3.33
2022-07-29T22:15:21.428Z,3.33
2022-07-29T22:17:49.252Z,3.53
2022-07-29T22:20:16.953Z,4.18
2022-07-29T22:22:44.708Z,3.40
2022-07-29T22:25:12.309Z,4.03
2022-07-29T22:27:40.255Z,4.40
2022-07-29T22:30:08.177Z,3.60
2022-07-29T22:32:36.063Z,4.53
2022-07-29T22:35:03.730Z,3.72
2022-07-29T22:37:31.450Z,3.60
2022-07-29T22:39:59.249Z,4.00
2022-07-29T22:42:26.915Z,4.00
2022-07-29T22:44:54.486Z,3.60
2022-07-29T22:47:45.757Z,3.95
2022-07-29T22:50:09.819Z,3.50
2022-07-29T22:52:37.395Z,3.75
2022-07-29T22:55:05.705Z,3.45
2022-07-29T22:57:33.214Z,3.70
2022-07-29T23:00:02.240Z,2.92
2022-07-29T23:02:31.306Z,3.47
2022-07-29T23:04:59.186Z,3.08
2022-07-29T23:07:26.871Z,2.88
2022-07-29T23:09:54.537Z,3.38
2022-07-29T23:12:22.190Z,3.03
2022-07-29T23:14:49.780Z,2.90
2022-07-29T23:17:17.503Z,2.80
2022-07-29T23:19:45.107Z,3.10
2022-07-29T23:22:12.760Z,2.85
2022-07-29T23:24:40.435Z,2.80
2022-07-29T23:27:08.892Z,2.67
2022-07-29T23:29:36.967Z,2.80
2022-07-29T23:32:04.879Z,2.88
2022-07-29T23:34:32.391Z,3.00
2022-07-29T23:37:01.366Z,2.70
2022-07-29T23:39:29.191Z,3.70
2022-07-29T23:41:56.789Z,2.70
2022-07-29T23:44:24.551Z,3.10
2022-07-29T23:46:52.134Z,2.97
2022-07-29T23:49:19.784Z,3.08
2022-07-29T23:51:47.472Z,3.22
2022-07-29T23:54:15.161Z,2.63
2022-07-29T23:56:42.878Z,2.80
2022-07-29T23:59:10.543Z,3.90
